createdAt,value
2022-09-21T03:03:34.548Z,2.80
2022-09-21T03:06:02.127Z,3.20
2022-09-21T03:08:28.749Z,3.20
2022-09-21T03:10:55.325Z,2.92
2022-09-21T03:13:21.748Z,3.55
2022-09-21T03:15:48.727Z,3.08
2022-09-21T03:18:15.377Z,3.50
2022-09-21T03:20:47.874Z,2.85
2022-09-21T03:23:14.716Z,2.60
2022-09-21T03:25:45.889Z,2.88
2022-09-21T03:28:13.553Z,3.10
2022-09-21T03:30:40.649Z,3.15
2022-09-21T03:33:08.258Z,2.97
2022-09-21T03:35:34.868Z,2.97
2022-09-21T03:38:02.086Z,3.50
2022-09-21T03:40:28.990Z,3.03
2022-09-21T03:42:55.694Z,3.20
2022-09-21T03:45:22.362Z,3.45
2022-09-21T03:47:48.920Z,3.30
2022-09-21T03:50:15.702Z,3.03
2022-09-21T03:52:42.139Z,3.13
2022-09-21T03:55:09.549Z,3.50
2022-09-21T03:57:36.966Z,3.05
2022-09-21T04:00:06.490Z,3.00
2022-09-21T04:02:33.019Z,3.08
2022-09-21T04:05:00.063Z,3.00
2022-09-21T04:07:26.641Z,2.95
2022-09-21T04:09:54.019Z,3.80
2022-09-21T04:12:23.316Z,2.95
2022-09-21T04:14:49.778Z,3.50
2022-09-21T04:17:16.568Z,2.90
2022-09-21T04:19:45.045Z,3.25
2022-09-21T04:22:12.607Z,3.33
2022-09-21T04:24:42.016Z,3.47
2022-09-21T04:27:09.750Z,3.75
2022-09-21T04:29:36.943Z,3.70
2022-09-21T04:32:04.418Z,3.78
2022-09-21T04:34:31.334Z,4.00
2022-09-21T04:36:58.829Z,4.50
2022-09-21T04:39:26.247Z,4.00
2022-09-21T04:41:52.653Z,3.97
2022-09-21T04:44:19.530Z,4.50
2022-09-21T04:46:46.022Z,3.97
2022-09-21T04:49:12.591Z,3.90
2022-09-21T04:51:39.067Z,3.50
2022-09-21T04:54:06.633Z,4.22
2022-09-21T04:56:33.096Z,3.90
2022-09-21T04:58:59.739Z,3.60
2022-09-21T05:01:26.390Z,3.90
2022-09-21T05:03:53.061Z,4.40
2022-09-21T05:06:19.525Z,4.22
2022-09-21T05:09:04.336Z,4.00
2022-09-21T05:11:30.873Z,7.82
2022-09-21T05:13:57.368Z,6.65
2022-09-21T05:16:23.857Z,5.70
2022-09-21T05:18:54.493Z,4.22
2022-09-21T05:21:21.615Z,4.18
2022-09-21T05:23:48.124Z,4.45
2022-09-21T05:26:14.606Z,4.18
2022-09-21T05:28:41.329Z,4.28
2022-09-21T05:31:26.624Z,4.22
2022-09-21T05:34:21.135Z,4.75
2022-09-21T05:36:50.442Z,4.90
2022-09-21T05:39:17.069Z,3.75
2022-09-21T05:41:43.802Z,4.47
2022-09-21T05:44:13.260Z,5.05
2022-09-21T05:46:42.984Z,5.38
2022-09-21T05:49:17.212Z,4.93
2022-09-21T05:52:09.301Z,4.10
2022-09-21T05:54:57.245Z,4.25
2022-09-21T05:57:42.656Z,4.50
2022-09-21T06:00:19.317Z,4.60
2022-09-21T06:03:07.271Z,3.70
2022-09-21T06:05:33.712Z,4.15
2022-09-21T06:08:00.182Z,4.38
2022-09-21T06:10:30.093Z,3.80
2022-09-21T06:12:56.593Z,4.43
2022-09-21T06:15:23.133Z,4.07
2022-09-21T06:17:49.553Z,4.28
2022-09-21T06:20:16.007Z,6.88
2022-09-21T06:22:42.445Z,7.80
2022-09-21T06:25:09.223Z,7.57
2022-09-21T06:27:35.789Z,7.55
2022-09-21T06:30:02.359Z,11.82
2022-09-21T06:32:28.937Z,9.07
2022-09-21T06:34:55.366Z,5.75
2022-09-21T06:37:21.859Z,5.15
2022-09-21T06:39:48.326Z,4.50
2022-09-21T06:42:14.908Z,4.32
2022-09-21T06:44:41.409Z,4.90
2022-09-21T06:47:09.042Z,3.75
2022-09-21T06:49:38.141Z,3.75
2022-09-21T06:52:08.288Z,3.08
2022-09-21T06:54:34.756Z,3.95
2022-09-21T06:57:01.194Z,4.22
2022-09-21T06:59:27.581Z,3.65
2022-09-21T07:01:55.720Z,4.18
2022-09-21T07:04:25.315Z,3.85
2022-09-21T07:06:51.998Z,3.60
2022-09-21T07:12:07.085Z,3.92
2022-09-21T07:14:33.902Z,4.45
2022-09-21T07:17:00.475Z,4.68
2022-09-21T07:19:26.979Z,4.60
2022-09-21T07:21:54.493Z,4.07
2022-09-21T07:24:21.150Z,4.20
2022-09-21T07:26:47.668Z,4.47
2022-09-21T07:29:14.270Z,4.68
2022-09-21T07:31:43.926Z,6.18
2022-09-21T07:34:13.618Z,4.97
2022-09-21T07:36:43.438Z,4.22
2022-09-21T07:39:10.662Z,4.60
2022-09-21T07:41:37.418Z,4.32
2022-09-21T07:44:04.244Z,4.03
2022-09-21T07:46:30.867Z,4.75
2022-09-21T07:48:57.465Z,4.88
2022-09-21T07:51:24.746Z,4.20
2022-09-21T07:53:58.848Z,3.83
2022-09-21T07:56:26.048Z,9.27
2022-09-21T07:59:07.910Z,6.00
2022-09-21T08:04:07.337Z,5.75
2022-09-21T08:06:35.926Z,4.63
2022-09-21T08:09:03.953Z,3.67
2022-09-21T08:11:33.121Z,6.20
2022-09-21T08:14:02.157Z,8.75
2022-09-21T08:16:30.968Z,5.50
2022-09-21T08:18:57.595Z,4.68
2022-09-21T08:21:24.056Z,3.47
2022-09-21T08:23:50.656Z,4.25
2022-09-21T08:26:20.001Z,4.03
2022-09-21T08:28:51.100Z,3.88
2022-09-21T08:31:20.376Z,4.40
2022-09-21T08:33:48.202Z,3.58
2022-09-21T08:36:14.800Z,3.33
2022-09-21T08:38:41.833Z,3.60
2022-09-21T08:41:36.976Z,3.72
2022-09-21T08:44:10.885Z,3.33
2022-09-21T08:46:38.971Z,2.63
2022-09-21T08:49:15.975Z,2.70
2022-09-21T08:51:55.525Z,3.05
2022-09-21T08:54:40.410Z,3.25
2022-09-21T08:57:12.461Z,3.08
2022-09-21T08:59:44.603Z,3.30
2022-09-21T09:02:29.847Z,2.58
2022-09-21T09:05:14.948Z,1.98
2022-09-21T09:08:03.734Z,2.88
2022-09-21T09:10:37.917Z,2.20
2022-09-21T09:13:42.528Z,2.92
2022-09-21T09:16:30.829Z,2.47
2022-09-21T09:19:15.525Z,2.08
2022-09-21T09:21:43.786Z,2.60
2022-09-21T09:24:21.533Z,2.40
2022-09-21T09:26:53.905Z,2.50
2022-09-21T09:29:37.790Z,2.78
2022-09-21T09:32:10.898Z,2.38
2022-09-21T09:34:43.269Z,2.17
2022-09-21T09:37:15.394Z,1.95
2022-09-21T09:39:45.287Z,2.17
2022-09-21T09:42:24.399Z,1.67
2022-09-21T09:45:09.202Z,2.05
2022-09-21T09:47:57.077Z,1.67
2022-09-21T09:50:28.612Z,2.00
2022-09-21T09:55:45.118Z,2.53
2022-09-21T09:58:21.961Z,1.83
2022-09-21T10:00:53.168Z,1.70
2022-09-21T10:03:26.810Z,1.63
2022-09-21T10:05:54.460Z,1.88
2022-09-21T10:08:44.410Z,1.83
2022-09-21T10:11:16.065Z,1.58
2022-09-21T10:13:46.065Z,1.27
2022-09-21T10:16:20.427Z,1.85
2022-09-21T10:18:56.241Z,1.10
2022-09-21T10:21:25.641Z,0.80
2022-09-21T10:24:21.737Z,1.15
2022-09-21T10:26:54.368Z,1.20
2022-09-21T10:29:23.734Z,0.93
2022-09-21T10:32:00.090Z,1.40
2022-09-21T10:34:31.656Z,0.88
2022-09-21T10:37:00.364Z,0.82
2022-09-21T10:39:33.603Z,0.95
2022-09-21T10:42:12.460Z,1.10
2022-09-21T10:44:43.117Z,1.02
2022-09-21T10:47:18.449Z,1.27
2022-09-21T10:49:50.284Z,1.10
2022-09-21T10:52:19.463Z,0.80
2022-09-21T10:54:52.023Z,0.95
2022-09-21T10:57:22.085Z,1.08
2022-09-21T10:59:48.556Z,1.00
2022-09-21T11:02:33.338Z,0.82
2022-09-21T11:05:13.770Z,1.05
2022-09-21T11:07:46.662Z,0.80
2022-09-21T11:10:39.334Z,1.00
2022-09-21T11:13:08.950Z,0.60
2022-09-21T11:15:46.990Z,0.80
2022-09-21T11:18:26.291Z,0.70
2022-09-21T11:20:55.170Z,0.85
2022-09-21T11:23:48.166Z,1.58
2022-09-21T11:26:23.732Z,1.00
2022-09-21T11:29:10.172Z,1.83
2022-09-21T11:32:17.188Z,3.60
2022-09-21T11:35:26.957Z,2.80
2022-09-21T11:38:13.221Z,0.85
2022-09-21T11:41:01.780Z,0.80
2022-09-21T11:43:40.282Z,1.02
2022-09-21T11:46:26.028Z,0.90
2022-09-21T11:48:59.357Z,0.77
2022-09-21T11:51:57.325Z,0.90
2022-09-21T11:54:44.615Z,0.80
2022-09-21T11:57:28.352Z,1.10
2022-09-21T12:00:16.033Z,0.88
2022-09-21T12:03:18.086Z,1.23
2022-09-21T12:08:39.631Z,1.20
2022-09-21T12:11:18.105Z,1.00
2022-09-21T12:14:08.079Z,0.75
2022-09-21T12:16:37.593Z,1.10
2022-09-21T12:19:17.903Z,0.98
2022-09-21T12:21:49.642Z,0.95
2022-09-21T12:24:22.176Z,1.13
2022-09-21T12:26:55.696Z,1.05
2022-09-21T12:29:43.248Z,1.13
2022-09-21T12:32:21.995Z,1.20
2022-09-21T12:34:56.473Z,0.95
2022-09-21T12:37:33.456Z,1.20
2022-09-21T12:40:19.294Z,1.30
2022-09-21T12:42:53.276Z,1.00
2022-09-21T12:45:25.774Z,1.17
2022-09-21T12:48:04.133Z,1.42
2022-09-21T12:50:40.260Z,1.00
2022-09-21T12:53:11.281Z,0.90
2022-09-21T12:55:49.147Z,0.88
2022-09-21T12:58:44.101Z,1.13
2022-09-21T13:01:20.828Z,1.02
2022-09-21T13:04:01.989Z,1.20
2022-09-21T13:06:47.687Z,0.98
2022-09-21T13:09:17.810Z,1.17
2022-09-21T13:11:53.233Z,0.75
2022-09-21T13:14:20.269Z,0.75
2022-09-21T13:16:57.573Z,1.00
2022-09-21T13:19:27.903Z,1.10
2022-09-21T13:22:14.360Z,1.15
2022-09-21T13:24:43.076Z,0.90
2022-09-21T13:27:09.685Z,0.75
2022-09-21T13:29:40.627Z,0.80
2022-09-21T13:32:13.824Z,1.17
2022-09-21T13:34:41.853Z,0.90
2022-09-21T13:37:29.218Z,0.88
2022-09-21T13:40:01.448Z,0.88
2022-09-21T13:42:30.988Z,0.93
2022-09-21T13:45:15.561Z,0.80
2022-09-21T13:47:45.260Z,0.93
2022-09-21T13:50:32.682Z,0.77
2022-09-21T13:53:03.810Z,0.77
2022-09-21T13:55:34.396Z,0.90
2022-09-21T13:58:06.480Z,0.70
2022-09-21T14:00:50.393Z,0.77
2022-09-21T14:03:32.115Z,0.93
2022-09-21T14:06:07.400Z,1.05
2022-09-21T14:08:37.778Z,0.90
2022-09-21T14:11:10.758Z,1.63
2022-09-21T14:13:38.683Z,0.88
2022-09-21T14:16:47.335Z,1.05
2022-09-21T14:19:16.829Z,1.20
2022-09-21T14:22:05.210Z,1.70
2022-09-21T14:24:44.920Z,2.13
2022-09-21T14:27:25.334Z,1.80
2022-09-21T14:29:56.352Z,1.15
2022-09-21T14:32:25.915Z,1.27
2022-09-21T14:35:11.341Z,0.70
2022-09-21T14:37:43.125Z,0.90
2022-09-21T14:40:42.354Z,1.42
2022-09-21T14:43:14.323Z,0.80
2022-09-21T14:46:02.062Z,1.63
2022-09-21T14:48:43.616Z,0.90
2022-09-21T14:51:34.624Z,1.10
2022-09-21T14:54:26.471Z,0.67
2022-09-21T14:59:48.124Z,1.23
2022-09-21T15:02:21.045Z,0.80
2022-09-21T15:05:09.506Z,0.80
2022-09-21T15:08:00.941Z,0.70
2022-09-21T15:10:56.432Z,0.82
2022-09-21T15:13:42.537Z,1.00
2022-09-21T15:16:27.724Z,0.90
2022-09-21T15:19:10.868Z,0.50
2022-09-21T15:21:42.065Z,0.52
2022-09-21T15:24:33.976Z,2.58
2022-09-21T15:29:34.468Z,2.03
2022-09-21T15:32:01.589Z,2.10
2022-09-21T15:34:28.566Z,1.58
2022-09-21T15:37:06.511Z,1.50
2022-09-21T15:39:33.125Z,1.52
2022-09-21T15:42:23.454Z,1.40
2022-09-21T15:44:54.143Z,1.40
2022-09-21T15:47:23.178Z,1.25
2022-09-21T15:49:51.728Z,1.63
2022-09-21T15:52:34.475Z,1.15
2022-09-21T15:55:17.852Z,1.70
2022-09-21T15:57:44.550Z,1.25
2022-09-21T16:00:18.849Z,1.20
2022-09-21T16:03:19.075Z,0.98
2022-09-21T16:05:48.243Z,0.80
2022-09-21T16:08:27.574Z,1.02
2022-09-21T16:11:11.934Z,0.93
2022-09-21T16:13:56.836Z,1.13
2022-09-21T16:16:23.352Z,1.17
2022-09-21T16:18:52.017Z,1.48
2022-09-21T16:21:27.703Z,1.23
2022-09-21T16:23:57.592Z,1.10
2022-09-21T16:26:34.578Z,1.15
2022-09-21T16:29:08.297Z,1.45
2022-09-21T16:31:37.256Z,1.80
2022-09-21T16:34:18.090Z,2.03
2022-09-21T16:36:45.533Z,2.03
2022-09-21T16:39:15.458Z,1.80
2022-09-21T16:41:49.384Z,1.50
2022-09-21T16:44:22.644Z,1.70
2022-09-21T16:46:54.045Z,1.70
2022-09-21T16:49:25.741Z,1.75
2022-09-21T16:51:55.766Z,1.88
2022-09-21T16:54:25.179Z,1.60
2022-09-21T16:56:54.234Z,1.52
2022-09-21T16:59:22.981Z,1.80
2022-09-21T17:01:56.491Z,1.73
2022-09-21T17:04:28.660Z,1.52
2022-09-21T17:06:55.993Z,1.48
2022-09-21T17:09:31.277Z,1.70
2022-09-21T17:12:01.739Z,1.48
2022-09-21T17:14:35.514Z,2.08
2022-09-21T17:17:08.468Z,1.45
2022-09-21T17:19:35.598Z,1.45
2022-09-21T17:22:07.147Z,1.58
2022-09-21T17:24:49.707Z,1.90
2022-09-21T17:27:18.251Z,1.55
2022-09-21T17:29:49.490Z,1.92
2022-09-21T17:32:20.695Z,1.58
2022-09-21T17:34:54.360Z,1.95
2022-09-21T17:37:21.852Z,2.30
2022-09-21T17:39:48.665Z,1.75
2022-09-21T17:42:18.916Z,2.17
2022-09-21T17:44:52.476Z,2.20
2022-09-21T17:47:25.565Z,1.90
2022-09-21T17:49:52.374Z,2.55
2022-09-21T17:52:41.131Z,2.22
2022-09-21T17:55:12.832Z,2.40
2022-09-21T18:00:32.253Z,2.88
2022-09-21T18:02:58.999Z,2.03
2022-09-21T18:05:28.166Z,2.20
2022-09-21T18:07:55.159Z,3.13
2022-09-21T18:10:25.818Z,3.28
2022-09-21T18:13:15.458Z,3.08
2022-09-21T18:16:10.150Z,2.63
2022-09-21T18:18:54.810Z,2.70
2022-09-21T18:21:27.425Z,2.47
2022-09-21T18:24:00.186Z,3.47
2022-09-21T18:26:26.823Z,5.35
2022-09-21T18:28:59.736Z,5.18
2022-09-21T18:31:51.747Z,3.65
2022-09-21T18:37:02.379Z,3.97
2022-09-21T18:39:46.190Z,4.40
2022-09-21T18:42:28.188Z,3.38
2022-09-21T18:45:09.571Z,3.75
2022-09-21T18:48:07.453Z,4.55
2022-09-21T18:50:41.048Z,4.63
2022-09-21T18:53:11.587Z,5.93
2022-09-21T18:55:38.353Z,5.25
2022-09-21T18:58:05.027Z,5.65
2022-09-21T19:00:31.791Z,5.75
2022-09-21T19:03:16.579Z,5.55
2022-09-21T19:06:29.426Z,5.28
2022-09-21T19:09:09.320Z,4.78
2022-09-21T19:11:47.955Z,5.03
2022-09-21T19:14:27.934Z,6.00
2022-09-21T19:17:22.924Z,5.45
2022-09-21T19:20:33.777Z,6.10
2022-09-21T19:23:18.474Z,5.70
2022-09-21T19:25:53.426Z,5.38
2022-09-21T19:29:01.006Z,5.43
2022-09-21T19:31:27.779Z,6.00
2022-09-21T19:33:54.363Z,5.70
2022-09-21T19:36:21.311Z,6.38
2022-09-21T19:38:48.064Z,5.95
2022-09-21T19:41:40.625Z,5.55
2022-09-21T19:44:16.761Z,5.68
2022-09-21T19:47:06.462Z,7.07
2022-09-21T19:49:54.370Z,6.95
2022-09-21T19:52:30.437Z,5.97
2022-09-21T19:55:15.909Z,5.40
2022-09-21T19:58:01.619Z,6.80
2022-09-21T20:00:28.278Z,5.95
